sensor_id;sensor_type;location;lat;lon;timestamp;pressure;altitude;pressure_sealevel;temperature;humidity
9750;BME280;4914;43.218;27.908;2022-09-09T00:00:53;101052.06;;;21.01;100.00
9750;BME280;4914;43.218;27.908;2022-09-09T00:03:25;101050.59;;;20.98;100.00
9750;BME280;4914;43.218;27.908;2022-09-09T00:06:00;101048.41;;;20.94;100.00
9750;BME280;4914;43.218;27.908;2022-09-09T00:08:40;101041.19;;;20.86;100.00
9750;BME280;4914;43.218;27.908;2022-09-09T00:11:13;101052.81;;;20.86;100.00
9750;BME280;4914;43.218;27.908;2022-09-09T00:13:46;101039.66;;;20.83;100.00
9750;BME280;4914;43.218;27.908;2022-09-09T00:16:17;101038.34;;;20.79;100.00
9750;BME280;4914;43.218;27.908;2022-09-09T00:18:55;101030.28;;;20.71;100.00
9750;BME280;4914;43.218;27.908;2022-09-09T00:21:25;101018.97;;;20.68;100.00
9750;BME280;4914;43.218;27.908;2022-09-09T00:23:56;101021.84;;;20.66;100.00
9750;BME280;4914;43.218;27.908;2022-09-09T00:26:31;101023.72;;;20.66;100.00
9750;BME280;4914;43.218;27.908;2022-09-09T00:29:09;101025.41;;;20.59;100.00
9750;BME280;4914;43.218;27.908;2022-09-09T00:31:41;101021.34;;;20.63;100.00
9750;BME280;4914;43.218;27.908;2022-09-09T00:34:11;101026.22;;;20.67;100.00
9750;BME280;4914;43.218;27.908;2022-09-09T00:36:40;101028.09;;;20.67;100.00
9750;BME280;4914;43.218;27.908;2022-09-09T00:39:25;101022.38;;;20.62;100.00
9750;BME280;4914;43.218;27.908;2022-09-09T00:42:07;101028.44;;;20.64;100.00
9750;BME280;4914;43.218;27.908;2022-09-09T00:44:56;101020.81;;;20.67;100.00
9750;BME280;4914;43.218;27.908;2022-09-09T00:47:43;101029.75;;;20.68;100.00
9750;BME280;4914;43.218;27.908;2022-09-09T00:50:26;101022.19;;;20.63;100.00
9750;BME280;4914;43.218;27.908;2022-09-09T00:53:05;101019.47;;;20.63;100.00
9750;BME280;4914;43.218;27.908;2022-09-09T00:55:44;101016.47;;;20.58;100.00
9750;BME280;4914;43.218;27.908;2022-09-09T00:58:14;101007.50;;;20.58;100.00
9750;BME280;4914;43.218;27.908;2022-09-09T01:00:43;101011.91;;;20.59;100.00
9750;BME280;4914;43.218;27.908;2022-09-09T01:03:19;101008.88;;;20.54;100.00
9750;BME280;4914;43.218;27.908;2022-09-09T01:05:56;101007.72;;;20.48;100.00
9750;BME280;4914;43.218;27.908;2022-09-09T01:11:21;101003.03;;;20.34;100.00
9750;BME280;4914;43.218;27.908;2022-09-09T01:13:55;101007.25;;;20.36;100.00
9750;BME280;4914;43.218;27.908;2022-09-09T01:16:25;101004.72;;;20.35;100.00
9750;BME280;4914;43.218;27.908;2022-09-09T01:18:54;101006.75;;;20.33;100.00
9750;BME280;4914;43.218;27.908;2022-09-09T01:21:27;101006.41;;;20.28;100.00
9750;BME280;4914;43.218;27.908;2022-09-09T01:24:13;101015.16;;;20.30;100.00
9750;BME280;4914;43.218;27.908;2022-09-09T01:26:45;101019.88;;;20.28;100.00
9750;BME280;4914;43.218;27.908;2022-09-09T01:29:13;101013.66;;;20.27;100.00
9750;BME280;4914;43.218;27.908;2022-09-09T01:31:42;101019.56;;;20.23;100.00
9750;BME280;4914;43.218;27.908;2022-09-09T01:34:18;101013.31;;;20.22;100.00
9750;BME280;4914;43.218;27.908;2022-09-09T01:36:48;101012.50;;;20.14;100.00
9750;BME280;4914;43.218;27.908;2022-09-09T01:39:17;101014.00;;;20.08;100.00
9750;BME280;4914;43.218;27.908;2022-09-09T01:41:45;101005.72;;;20.10;100.00
9750;BME280;4914;43.218;27.908;2022-09-09T01:44:12;101009.28;;;20.10;100.00
9750;BME280;4914;43.218;27.908;2022-09-09T01:46:39;101010.44;;;20.16;100.00
9750;BME280;4914;43.218;27.908;2022-09-09T01:49:07;101019.06;;;20.11;100.00
9750;BME280;4914;43.218;27.908;2022-09-09T01:51:35;101002.38;;;20.08;100.00
9750;BME280;4914;43.218;27.908;2022-09-09T01:54:03;101007.09;;;20.06;100.00
9750;BME280;4914;43.218;27.908;2022-09-09T01:56:39;101005.59;;;20.03;100.00
9750;BME280;4914;43.218;27.908;2022-09-09T01:59:24;101008.44;;;20.01;100.00
9750;BME280;4914;43.218;27.908;2022-09-09T02:02:06;101002.72;;;19.96;100.00
9750;BME280;4914;43.218;27.908;2022-09-09T02:04:39;101013.69;;;19.95;100.00
9750;BME280;4914;43.218;27.908;2022-09-09T02:07:15;101015.69;;;19.93;100.00
9750;BME280;4914;43.218;27.908;2022-09-09T02:09:51;101014.16;;;19.90;100.00
9750;BME280;4914;43.218;27.908;2022-09-09T02:12:23;101024.94;;;19.90;100.00
9750;BME280;4914;43.218;27.908;2022-09-09T02:14:56;101020.91;;;19.86;100.00
9750;BME280;4914;43.218;27.908;2022-09-09T02:17:28;101016.22;;;19.80;100.00
9750;BME280;4914;43.218;27.908;2022-09-09T02:20:03;101015.34;;;19.72;100.00
9750;BME280;4914;43.218;27.908;2022-09-09T02:22:32;101017.19;;;19.71;100.00
9750;BME280;4914;43.218;27.908;2022-09-09T02:25:02;101021.25;;;19.67;100.00
9750;BME280;4914;43.218;27.908;2022-09-09T02:27:30;101016.53;;;19.69;100.00
9750;BME280;4914;43.218;27.908;2022-09-09T02:30:01;101020.22;;;19.68;100.00
9750;BME280;4914;43.218;27.908;2022-09-09T02:32:29;101021.06;;;19.69;100.00
9750;BME280;4914;43.218;27.908;2022-09-09T02:35:02;101014.84;;;19.68;100.00
9750;BME280;4914;43.218;27.908;2022-09-09T02:37:34;101015.84;;;19.67;100.00
9750;BME280;4914;43.218;27.908;2022-09-09T02:40:03;101009.09;;;19.71;100.00
9750;BME280;4914;43.218;27.908;2022-09-09T02:42:31;101020.22;;;19.76;100.00
9750;BME280;4914;43.218;27.908;2022-09-09T02:44:59;101020.22;;;19.76;100.00
9750;BME280;4914;43.218;27.908;2022-09-09T02:47:30;101019.22;;;19.77;100.00
9750;BME280;4914;43.218;27.908;2022-09-09T02:50:05;101016.03;;;19.74;100.00
9750;BME280;4914;43.218;27.908;2022-09-09T02:52:42;101007.25;;;19.72;100.00
9750;BME280;4914;43.218;27.908;2022-09-09T02:55:16;101012.50;;;19.73;100.00
9750;BME280;4914;43.218;27.908;2022-09-09T02:57:48;101016.19;;;19.72;100.00
9750;BME280;4914;43.218;27.908;2022-09-09T03:00:22;101015.34;;;19.72;100.00
9750;BME280;4914;43.218;27.908;2022-09-09T03:02:50;101011.66;;;19.73;100.00
9750;BME280;4914;43.218;27.908;2022-09-09T03:05:17;101018.72;;;19.74;100.00
9750;BME280;4914;43.218;27.908;2022-09-09T03:07:44;101009.94;;;19.72;100.00
9750;BME280;4914;43.218;27.908;2022-09-09T03:10:11;101010.47;;;19.75;100.00
9750;BME280;4914;43.218;27.908;2022-09-09T03:12:37;101009.78;;;19.73;100.00
9750;BME280;4914;43.218;27.908;2022-09-09T03:15:06;101015.53;;;19.70;100.00
9750;BME280;4914;43.218;27.908;2022-09-09T03:17:35;101016.38;;;19.71;100.00
9750;BME280;4914;43.218;27.908;2022-09-09T03:20:02;101021.06;;;19.69;100.00
9750;BME280;4914;43.218;27.908;2022-09-09T03:22:29;101025.13;;;19.65;100.00
9750;BME280;4914;43.218;27.908;2022-09-09T03:24:56;101026.97;;;19.72;100.00
9750;BME280;4914;43.218;27.908;2022-09-09T03:27:23;101020.56;;;19.73;100.00
9750;BME280;4914;43.218;27.908;2022-09-09T03:29:50;101022.28;;;19.74;100.00
9750;BME280;4914;43.218;27.908;2022-09-09T03:32:17;101024.28;;;19.72;100.00
9750;BME280;4914;43.218;27.908;2022-09-09T03:34:45;101018.53;;;19.67;100.00
9750;BME280;4914;43.218;27.908;2022-09-09T03:37:15;101010.81;;;19.64;100.00
9750;BME280;4914;43.218;27.908;2022-09-09T03:39:43;101021.09;;;19.61;100.00
9750;BME280;4914;43.218;27.908;2022-09-09T03:42:12;101024.63;;;19.61;100.00
9750;BME280;4914;43.218;27.908;2022-09-09T03:44:44;101025.63;;;19.60;100.00
9750;BME280;4914;43.218;27.908;2022-09-09T03:47:15;101016.53;;;19.61;100.00
9750;BME280;4914;43.218;27.908;2022-09-09T03:49:42;101020.03;;;19.62;100.00
9750;BME280;4914;43.218;27.908;2022-09-09T03:52:11;101014.66;;;19.62;100.00
9750;BME280;4914;43.218;27.908;2022-09-09T03:54:38;101024.63;;;19.61;100.00
9750;BME280;4914;43.218;27.908;2022-09-09T03:57:08;101020.25;;;19.60;100.00
9750;BME280;4914;43.218;27.908;2022-09-09T03:59:35;101024.28;;;19.56;100.00
9750;BME280;4914;43.218;27.908;2022-09-09T04:02:03;101018.72;;;19.66;100.00
9750;BME280;4914;43.218;27.908;2022-09-09T04:04:31;101017.88;;;19.73;100.00
9750;BME280;4914;43.218;27.908;2022-09-09T04:06:57;101016.03;;;19.74;100.00
9750;BME280;4914;43.218;27.908;2022-09-09T04:09:26;101019.41;;;19.76;100.00
9750;BME280;4914;43.218;27.908;2022-09-09T04:11:53;101019.41;;;19.76;100.00
9750;BME280;4914;43.218;27.908;2022-09-09T04:14:20;101023.47;;;19.80;100.00
9750;BME280;4914;43.218;27.908;2022-09-09T04:16:47;101031.19;;;19.83;100.00
9750;BME280;4914;43.218;27.908;2022-09-09T04:19:14;101032.53;;;19.87;100.00
9750;BME280;4914;43.218;27.908;2022-09-09T04:21:42;101028.34;;;19.92;100.00
9750;BME280;4914;43.218;27.908;2022-09-09T04:24:10;101019.75;;;19.97;100.00
9750;BME280;4914;43.218;27.908;2022-09-09T04:26:38;101023.63;;;20.02;100.00
9750;BME280;4914;43.218;27.908;2022-09-09T04:29:05;101018.91;;;20.05;100.00
9750;BME280;4914;43.218;27.908;2022-09-09T04:31:32;101025.66;;;20.09;100.00
9750;BME280;4914;43.218;27.908;2022-09-09T04:33:59;101023.94;;;20.16;100.00
9750;BME280;4914;43.218;27.908;2022-09-09T04:36:30;101035.91;;;20.21;100.00
9750;BME280;4914;43.218;27.908;2022-09-09T04:38:57;101034.53;;;20.25;100.00
9750;BME280;4914;43.218;27.908;2022-09-09T04:41:24;101042.00;;;20.31;100.00
9750;BME280;4914;43.218;27.908;2022-09-09T04:43:52;101036.78;;;20.38;100.00
9750;BME280;4914;43.218;27.908;2022-09-09T04:46:20;101038.44;;;20.47;100.00
9750;BME280;4914;43.218;27.908;2022-09-09T04:48:48;101026.59;;;20.56;100.00
9750;BME280;4914;43.218;27.908;2022-09-09T04:51:15;101024.56;;;20.66;100.00
9750;BME280;4914;43.218;27.908;2022-09-09T04:53:42;101019.44;;;20.79;100.00
9750;BME280;4914;43.218;27.908;2022-09-09T04:56:11;101025.47;;;20.89;100.00
9750;BME280;4914;43.218;27.908;2022-09-09T04:58:38;101022.56;;;20.99;100.00
9750;BME280;4914;43.218;27.908;2022-09-09T05:01:10;101032.66;;;21.05;100.00
9750;BME280;4914;43.218;27.908;2022-09-09T05:03:38;101030.44;;;21.17;100.00
9750;BME280;4914;43.218;27.908;2022-09-09T05:06:06;101033.94;;;21.25;100.00
9750;BME280;4914;43.218;27.908;2022-09-09T05:08:35;101038.47;;;21.33;100.00
9750;BME280;4914;43.218;27.908;2022-09-09T05:11:02;101037.34;;;21.50;100.00
9750;BME280;4914;43.218;27.908;2022-09-09T05:13:29;101035.31;;;21.52;100.00
9750;BME280;4914;43.218;27.908;2022-09-09T05:15:57;101032.84;;;21.65;100.00
9750;BME280;4914;43.218;27.908;2022-09-09T05:18:26;101031.84;;;21.66;100.00
9750;BME280;4914;43.218;27.908;2022-09-09T05:20:58;101032.84;;;21.65;100.00
9750;BME280;4914;43.218;27.908;2022-09-09T05:23:25;101036.22;;;21.90;100.00
9750;BME280;4914;43.218;27.908;2022-09-09T05:25:56;101032.81;;;21.96;100.00
9750;BME280;4914;43.218;27.908;2022-09-09T05:28:23;101030.94;;;21.97;100.00
9750;BME280;4914;43.218;27.908;2022-09-09T05:30:58;101030.06;;;22.19;100.00
9750;BME280;4914;43.218;27.908;2022-09-09T05:33:27;101020.72;;;22.22;100.00
9750;BME280;4914;43.218;27.908;2022-09-09T05:35:58;101019.81;;;22.29;100.00
9750;BME280;4914;43.218;27.908;2022-09-09T05:38:25;101019.16;;;22.27;100.00
9750;BME280;4914;43.218;27.908;2022-09-09T05:40:52;101010.88;;;22.29;100.00
9750;BME280;4914;43.218;27.908;2022-09-09T05:43:19;101016.16;;;22.22;100.00
9750;BME280;4914;43.218;27.908;2022-09-09T05:45:46;101017.69;;;22.39;100.00
9750;BME280;4914;43.218;27.908;2022-09-09T05:48:14;101005.75;;;22.48;100.00
9750;BME280;4914;43.218;27.908;2022-09-09T05:50:43;101007.53;;;22.56;100.00
9750;BME280;4914;43.218;27.908;2022-09-09T05:53:10;101002.56;;;22.59;100.00
9750;BME280;4914;43.218;27.908;2022-09-09T05:55:37;101012.75;;;22.57;100.00
9750;BME280;4914;43.218;27.908;2022-09-09T05:58:04;101009.94;;;22.66;100.00
9750;BME280;4914;43.218;27.908;2022-09-09T06:00:31;101003.91;;;22.64;100.00
9750;BME280;4914;43.218;27.908;2022-09-09T06:02:58;101007.56;;;22.71;100.00
9750;BME280;4914;43.218;27.908;2022-09-09T06:05:25;101011.84;;;22.80;100.00
9750;BME280;4914;43.218;27.908;2022-09-09T06:07:55;101006.88;;;22.83;100.00
9750;BME280;4914;43.218;27.908;2022-09-09T06:10:22;101010.06;;;22.87;100.00
9750;BME280;4914;43.218;27.908;2022-09-09T06:12:52;101005.72;;;23.07;100.00
9750;BME280;4914;43.218;27.908;2022-09-09T06:15:19;101001.09;;;23.01;100.00
9750;BME280;4914;43.218;27.908;2022-09-09T06:17:46;101008.69;;;23.12;100.00
9750;BME280;4914;43.218;27.908;2022-09-09T06:20:14;101003.66;;;23.24;100.00
9750;BME280;4914;43.218;27.908;2022-09-09T06:22:41;101008.22;;;23.23;100.00
9750;BME280;4914;43.218;27.908;2022-09-09T06:25:10;101005.50;;;23.23;100.00
9750;BME280;4914;43.218;27.908;2022-09-09T06:27:37;101011.31;;;23.20;100.00
9750;BME280;4914;43.218;27.908;2022-09-09T06:30:05;101016.88;;;23.33;100.00
9750;BME280;4914;43.218;27.908;2022-09-09T06:32:33;101027.91;;;23.46;100.00
9750;BME280;4914;43.218;27.908;2022-09-09T06:35:02;101022.47;;;23.46;100.00
9750;BME280;4914;43.218;27.908;2022-09-09T06:37:29;101017.78;;;23.40;100.00
9750;BME280;4914;43.218;27.908;2022-09-09T06:39:55;101024.56;;;23.44;100.00
9750;BME280;4914;43.218;27.908;2022-09-09T06:42:24;101027.53;;;23.50;100.00
9750;BME280;4914;43.218;27.908;2022-09-09T06:44:50;101038.25;;;23.43;100.00
9750;BME280;4914;43.218;27.908;2022-09-09T06:47:18;101038.38;;;23.50;100.00
9750;BME280;4914;43.218;27.908;2022-09-09T06:49:45;101042.84;;;23.42;100.00
9750;BME280;4914;43.218;27.908;2022-09-09T06:52:12;101037.81;;;23.39;100.00
9750;BME280;4914;43.218;27.908;2022-09-09T06:54:39;101046.13;;;23.38;100.00
9750;BME280;4914;43.218;27.908;2022-09-09T06:57:05;101043.03;;;23.41;100.00
9750;BME280;4914;43.218;27.908;2022-09-09T06:59:34;101043.16;;;23.48;100.00
9750;BME280;4914;43.218;27.908;2022-09-09T07:02:01;101043.69;;;23.58;100.00
9750;BME280;4914;43.218;27.908;2022-09-09T07:04:28;101034.31;;;23.60;100.00
9750;BME280;4914;43.218;27.908;2022-09-09T07:06:55;101029.66;;;23.54;100.00
9750;BME280;4914;43.218;27.908;2022-09-09T07:09:22;101034.81;;;23.70;100.00
9750;BME280;4914;43.218;27.908;2022-09-09T07:11:51;101042.47;;;23.81;100.00
9750;BME280;4914;43.218;27.908;2022-09-09T07:14:19;101047.03;;;24.02;100.00
9750;BME280;4914;43.218;27.908;2022-09-09T07:16:47;101046.19;;;24.23;100.00
9750;BME280;4914;43.218;27.908;2022-09-09T07:19:14;101062.03;;;24.19;100.00
9750;BME280;4914;43.218;27.908;2022-09-09T07:21:41;101048.41;;;23.92;100.00
9750;BME280;4914;43.218;27.908;2022-09-09T07:24:09;101043.94;;;23.84;100.00
9750;BME280;4914;43.218;27.908;2022-09-09T07:26:37;101048.44;;;23.98;100.00
9750;BME280;4914;43.218;27.908;2022-09-09T07:29:04;101047.44;;;24.20;100.00
9750;BME280;4914;43.218;27.908;2022-09-09T07:31:32;101051.47;;;24.59;100.00
9750;BME280;4914;43.218;27.908;2022-09-09T07:34:03;101035.25;;;24.72;100.00
9750;BME280;4914;43.218;27.908;2022-09-09T07:36:32;101035.00;;;24.95;100.00
9750;BME280;4914;43.218;27.908;2022-09-09T07:39:01;101043.41;;;25.06;100.00
9750;BME280;4914;43.218;27.908;2022-09-09T07:41:31;101045.75;;;25.16;100.00
9750;BME280;4914;43.218;27.908;2022-09-09T07:44:03;101047.97;;;24.99;100.00
9750;BME280;4914;43.218;27.908;2022-09-09T07:46:30;101053.69;;;25.11;100.00
9750;BME280;4914;43.218;27.908;2022-09-09T07:48:57;101061.13;;;25.37;100.00
9750;BME280;4914;43.218;27.908;2022-09-09T07:51:27;101056.19;;;25.60;100.00
9750;BME280;4914;43.218;27.908;2022-09-09T07:53:56;101052.88;;;25.78;100.00
9750;BME280;4914;43.218;27.908;2022-09-09T07:56:25;101053.88;;;25.57;100.00
9750;BME280;4914;43.218;27.908;2022-09-09T07:58:54;101055.75;;;25.56;100.00
9750;BME280;4914;43.218;27.908;2022-09-09T08:01:23;101061.97;;;25.44;100.00
9750;BME280;4914;43.218;27.908;2022-09-09T08:03:54;101055.50;;;25.45;100.00
9750;BME280;4914;43.218;27.908;2022-09-09T08:06:21;101054.72;;;25.57;100.00
9750;BME280;4914;43.218;27.908;2022-09-09T08:08:52;101048.25;;;25.65;98.41
9750;BME280;4914;43.218;27.908;2022-09-09T08:11:21;101060.78;;;25.66;99.68
9750;BME280;4914;43.218;27.908;2022-09-09T08:13:49;101050.09;;;25.58;100.00
9750;BME280;4914;43.218;27.908;2022-09-09T08:16:18;101053.72;;;25.78;93.01
9750;BME280;4914;43.218;27.908;2022-09-09T08:18:47;101053.13;;;26.16;81.44
9750;BME280;4914;43.218;27.908;2022-09-09T08:21:16;101032.84;;;26.31;72.70
9750;BME280;4914;43.218;27.908;2022-09-09T08:23:45;101041.59;;;26.07;58.20
9750;BME280;4914;43.218;27.908;2022-09-09T08:26:16;101036.78;;;26.55;61.23
9750;BME280;4914;43.218;27.908;2022-09-09T08:28:45;101028.34;;;26.89;71.48
9750;BME280;4914;43.218;27.908;2022-09-09T08:31:13;101019.72;;;26.99;82.47
9750;BME280;4914;43.218;27.908;2022-09-09T08:33:42;101025.78;;;27.39;86.45
9750;BME280;4914;43.218;27.908;2022-09-09T08:36:13;101018.19;;;27.54;82.68
9750;BME280;4914;43.218;27.908;2022-09-09T08:38:41;101014.66;;;27.79;89.84
9750;BME280;4914;43.218;27.908;2022-09-09T08:41:25;100998.38;;;27.65;97.03
9750;BME280;4914;43.218;27.908;2022-09-09T08:44:02;101021.91;;;28.66;86.71
9750;BME280;4914;43.218;27.908;2022-09-09T08:46:36;101014.78;;;29.01;83.06
9750;BME280;4914;43.218;27.908;2022-09-09T08:49:14;101013.22;;;30.48;73.35
9750;BME280;4914;43.218;27.908;2022-09-09T08:51:45;101008.41;;;30.78;71.26
9750;BME280;4914;43.218;27.908;2022-09-09T08:54:12;101017.22;;;30.92;68.12
9750;BME280;4914;43.218;27.908;2022-09-09T08:56:40;101010.38;;;31.74;64.30
9750;BME280;4914;43.218;27.908;2022-09-09T08:59:09;101005.31;;;32.71;59.26
9750;BME280;4914;43.218;27.908;2022-09-09T09:01:45;101006.88;;;32.29;59.54
9750;BME280;4914;43.218;27.908;2022-09-09T09:04:33;100994.19;;;32.83;58.37
9750;BME280;4914;43.218;27.908;2022-09-09T09:07:12;101008.16;;;33.68;52.66
9750;BME280;4914;43.218;27.908;2022-09-09T09:09:51;100998.38;;;34.56;49.00
9750;BME280;4914;43.218;27.908;2022-09-09T09:12:28;100999.94;;;33.73;50.35
9750;BME280;4914;43.218;27.908;2022-09-09T09:14:55;100998.13;;;33.62;52.38
9750;BME280;4914;43.218;27.908;2022-09-09T09:17:25;100979.16;;;33.12;51.13
9750;BME280;4914;43.218;27.908;2022-09-09T09:19:57;100995.19;;;33.42;51.49
9750;BME280;4914;43.218;27.908;2022-09-09T09:22:30;100992.75;;;34.04;50.69
9750;BME280;4914;43.218;27.908;2022-09-09T09:25:04;101003.41;;;33.91;51.09
9750;BME280;4914;43.218;27.908;2022-09-09T09:27:41;101002.38;;;34.02;49.93
9750;BME280;4914;43.218;27.908;2022-09-09T09:30:15;101018.69;;;34.45;48.92
9750;BME280;4914;43.218;27.908;2022-09-09T09:32:46;101021.59;;;33.38;51.51
9750;BME280;4914;43.218;27.908;2022-09-09T09:35:16;101007.63;;;34.03;49.63
9750;BME280;4914;43.218;27.908;2022-09-09T09:37:42;101014.00;;;33.77;50.06
9750;BME280;4914;43.218;27.908;2022-09-09T09:40:11;101017.81;;;34.03;48.88
9750;BME280;4914;43.218;27.908;2022-09-09T09:42:51;101034.66;;;34.75;47.73
9750;BME280;4914;43.218;27.908;2022-09-09T09:45:26;101030.66;;;35.08;46.31
9750;BME280;4914;43.218;27.908;2022-09-09T09:47:59;101038.50;;;33.25;50.12
9750;BME280;4914;43.218;27.908;2022-09-09T09:50:26;101025.75;;;32.97;51.90
9750;BME280;4914;43.218;27.908;2022-09-09T09:52:57;101000.03;;;33.08;51.44
9750;BME280;4914;43.218;27.908;2022-09-09T09:55:25;101010.25;;;33.13;52.16
9750;BME280;4914;43.218;27.908;2022-09-09T09:58:00;101002.13;;;33.71;51.08
9750;BME280;4914;43.218;27.908;2022-09-09T10:00:28;101000.19;;;33.72;50.11
9750;BME280;4914;43.218;27.908;2022-09-09T10:02:55;100986.09;;;34.00;49.96
9750;BME280;4914;43.218;27.908;2022-09-09T10:05:23;100990.13;;;34.67;48.16
9750;BME280;4914;43.218;27.908;2022-09-09T10:08:01;100994.63;;;34.78;48.05
9750;BME280;4914;43.218;27.908;2022-09-09T10:10:36;101009.91;;;33.80;49.45
9750;BME280;4914;43.218;27.908;2022-09-09T10:13:11;100994.97;;;33.22;52.42
9750;BME280;4914;43.218;27.908;2022-09-09T10:15:45;100998.03;;;34.11;49.89
9750;BME280;4914;43.218;27.908;2022-09-09T10:18:30;101007.44;;;32.86;52.75
9750;BME280;4914;43.218;27.908;2022-09-09T10:21:06;101005.16;;;31.61;56.91
9750;BME280;4914;43.218;27.908;2022-09-09T10:23:46;100991.69;;;32.10;56.94
9750;BME280;4914;43.218;27.908;2022-09-09T10:26:32;100993.72;;;32.31;54.99
9750;BME280;4914;43.218;27.908;2022-09-09T10:29:21;100981.22;;;32.07;57.25
9750;BME280;4914;43.218;27.908;2022-09-09T10:31:56;100991.69;;;33.03;53.18
9750;BME280;4914;43.218;27.908;2022-09-09T10:34:43;100981.09;;;32.90;52.10
9750;BME280;4914;43.218;27.908;2022-09-09T10:37:29;100993.34;;;33.48;51.35
9750;BME280;4914;43.218;27.908;2022-09-09T10:40:08;100987.50;;;34.03;49.09
9750;BME280;4914;43.218;27.908;2022-09-09T10:42:42;100979.56;;;33.75;51.18
9750;BME280;4914;43.218;27.908;2022-09-09T10:45:17;100985.66;;;34.13;50.76
9750;BME280;4914;43.218;27.908;2022-09-09T10:48:13;100982.00;;;33.71;51.31
9750;BME280;4914;43.218;27.908;2022-09-09T10:50:53;100988.69;;;33.53;52.50
9750;BME280;4914;43.218;27.908;2022-09-09T10:53:31;100992.19;;;34.02;50.71
9750;BME280;4914;43.218;27.908;2022-09-09T10:56:06;100974.47;;;34.72;48.48
9750;BME280;4914;43.218;27.908;2022-09-09T10:58:39;100984.53;;;34.51;48.07
9750;BME280;4914;43.218;27.908;2022-09-09T11:01:15;100989.41;;;33.17;50.31
9750;BME280;4914;43.218;27.908;2022-09-09T11:03:43;100981.00;;;32.63;52.96
9750;BME280;4914;43.218;27.908;2022-09-09T11:06:18;100967.75;;;33.04;51.92
9750;BME280;4914;43.218;27.908;2022-09-09T11:08:46;100985.19;;;32.66;52.77
9750;BME280;4914;43.218;27.908;2022-09-09T11:11:19;100979.22;;;32.74;53.25
9750;BME280;4914;43.218;27.908;2022-09-09T11:13:52;100978.06;;;33.13;53.68
9750;BME280;4914;43.218;27.908;2022-09-09T11:16:27;100974.19;;;33.36;53.01
9750;BME280;4914;43.218;27.908;2022-09-09T11:19:03;100982.81;;;33.18;53.38
9750;BME280;4914;43.218;27.908;2022-09-09T11:21:33;100984.59;;;32.85;53.75
9750;BME280;4914;43.218;27.908;2022-09-09T11:24:04;100991.00;;;33.13;53.56
9750;BME280;4914;43.218;27.908;2022-09-09T11:26:40;100982.66;;;32.86;55.09
9750;BME280;4914;43.218;27.908;2022-09-09T11:32:18;100972.56;;;32.15;57.16
9750;BME280;4914;43.218;27.908;2022-09-09T11:34:53;100966.38;;;31.12;62.76
9750;BME280;4914;43.218;27.908;2022-09-09T11:37:41;100969.00;;;31.52;61.89
9750;BME280;4914;43.218;27.908;2022-09-09T11:40:19;100962.53;;;30.39;69.05
9750;BME280;4914;43.218;27.908;2022-09-09T11:42:47;100962.06;;;30.53;69.34
9750;BME280;4914;43.218;27.908;2022-09-09T11:45:23;100968.84;;;31.14;67.32
9750;BME280;4914;43.218;27.908;2022-09-09T11:47:55;100961.63;;;31.08;66.06
9750;BME280;4914;43.218;27.908;2022-09-09T11:50:33;100975.34;;;31.53;64.47
9750;BME280;4914;43.218;27.908;2022-09-09T11:53:21;100976.88;;;31.04;67.71
9750;BME280;4914;43.218;27.908;2022-09-09T11:56:03;100961.69;;;30.38;72.78
9750;BME280;4914;43.218;27.908;2022-09-09T11:58:36;100957.44;;;30.54;72.91
9750;BME280;4914;43.218;27.908;2022-09-09T12:01:14;100953.66;;;30.83;72.99
9750;BME280;4914;43.218;27.908;2022-09-09T12:03:45;100963.63;;;29.91;78.15
9750;BME280;4914;43.218;27.908;2022-09-09T12:06:17;100954.50;;;29.08;86.02
9750;BME280;4914;43.218;27.908;2022-09-09T12:08:48;100957.13;;;28.30;94.30
9750;BME280;4914;43.218;27.908;2022-09-09T12:11:24;100946.88;;;28.43;93.97
9750;BME280;4914;43.218;27.908;2022-09-09T12:13:53;100945.22;;;28.79;91.54
9750;BME280;4914;43.218;27.908;2022-09-09T12:16:34;100947.09;;;29.26;88.22
9750;BME280;4914;43.218;27.908;2022-09-09T12:19:06;100939.03;;;29.31;86.79
9750;BME280;4914;43.218;27.908;2022-09-09T12:21:46;100944.56;;;29.13;89.46
9750;BME280;4914;43.218;27.908;2022-09-09T12:27:07;100928.97;;;28.04;91.22
9750;BME280;4914;43.218;27.908;2022-09-09T12:29:43;100933.06;;;27.70;96.85
9750;BME280;4914;43.218;27.908;2022-09-09T12:32:15;100921.44;;;27.82;98.04
9750;BME280;4914;43.218;27.908;2022-09-09T12:34:47;100932.59;;;27.73;98.69
9750;BME280;4914;43.218;27.908;2022-09-09T12:37:21;100931.59;;;27.93;97.53
9750;BME280;4914;43.218;27.908;2022-09-09T12:39:54;100929.50;;;27.70;100.00
9750;BME280;4914;43.218;27.908;2022-09-09T12:42:23;100927.25;;;28.10;97.67
9750;BME280;4914;43.218;27.908;2022-09-09T12:44:51;100924.72;;;28.33;94.29
9750;BME280;4914;43.218;27.908;2022-09-09T12:47:20;100920.31;;;28.07;97.02
9750;BME280;4914;43.218;27.908;2022-09-09T12:49:50;100919.78;;;27.99;98.81
9750;BME280;4914;43.218;27.908;2022-09-09T12:52:25;100917.72;;;27.94;100.00
9750;BME280;4914;43.218;27.908;2022-09-09T12:54:55;100911.50;;;27.62;100.00
9750;BME280;4914;43.218;27.908;2022-09-09T12:57:24;100906.06;;;27.62;100.00
9750;BME280;4914;43.218;27.908;2022-09-09T12:59:52;100908.69;;;27.94;100.00
9750;BME280;4914;43.218;27.908;2022-09-09T13:02:25;100909.00;;;27.61;100.00
9750;BME280;4914;43.218;27.908;2022-09-09T13:04:54;100913.78;;;27.34;100.00
9750;BME280;4914;43.218;27.908;2022-09-09T13:07:32;100908.78;;;27.31;100.00
9750;BME280;4914;43.218;27.908;2022-09-09T13:09:59;100901.75;;;27.73;100.00
9750;BME280;4914;43.218;27.908;2022-09-09T13:12:26;100899.09;;;27.66;100.00
9750;BME280;4914;43.218;27.908;2022-09-09T13:14:55;100898.59;;;27.45;100.00
9750;BME280;4914;43.218;27.908;2022-09-09T13:17:24;100888.78;;;27.68;100.00
9750;BME280;4914;43.218;27.908;2022-09-09T13:19:56;100894.56;;;27.54;100.00
9750;BME280;4914;43.218;27.908;2022-09-09T13:22:29;100902.66;;;27.67;100.00